sensor_id;sensor_type;location;lat;lon;timestamp;temperature;humidity
3402;DHT22;1714;49.756;8.610;2023-02-11T04:40:06;2.20;53.50
3402;DHT22;1714;49.756;8.610;2023-02-11T04:50:42;2.20;52.10
3402;DHT22;1714;49.756;8.610;2023-02-11T05:01:17;2.10;53.90
3402;DHT22;1714;49.756;8.610;2023-02-11T05:11:53;2.30;53.30
3402;DHT22;1714;49.756;8.610;2023-02-11T05:22:29;2.50;52.00
3402;DHT22;1714;49.756;8.610;2023-02-11T05:33:04;2.60;50.00
3402;DHT22;1714;49.756;8.610;2023-02-11T05:43:40;2.60;49.30
3402;DHT22;1714;49.756;8.610;2023-02-11T05:54:15;2.50;50.40
3402;DHT22;1714;49.756;8.610;2023-02-11T06:04:51;2.60;50.10
3402;DHT22;1714;49.756;8.610;2023-02-11T06:15:27;2.50;48.70
3402;DHT22;1714;49.756;8.610;2023-02-11T06:26:04;2.40;48.60
3402;DHT22;1714;49.756;8.610;2023-02-11T06:36:40;2.30;49.60
3402;DHT22;1714;49.756;8.610;2023-02-11T06:47:16;2.40;49.20
3402;DHT22;1714;49.756;8.610;2023-02-11T06:57:51;2.40;48.80
3402;DHT22;1714;49.756;8.610;2023-02-11T07:08:27;2.40;47.80
3402;DHT22;1714;49.756;8.610;2023-02-11T07:19:02;2.50;47.50
3402;DHT22;1714;49.756;8.610;2023-02-11T07:29:38;2.40;46.50
3402;DHT22;1714;49.756;8.610;2023-02-11T07:40:16;2.40;47.30
3402;DHT22;1714;49.756;8.610;2023-02-11T07:50:51;2.60;44.10
3402;DHT22;1714;49.756;8.610;2023-02-11T08:01:28;3.10;41.00
3402;DHT22;1714;49.756;8.610;2023-02-11T08:12:04;5.80;23.90
3402;DHT22;1714;49.756;8.610;2023-02-11T08:22:40;5.90;22.20
3402;DHT22;1714;49.756;8.610;2023-02-11T08:33:16;5.40;24.10
3402;DHT22;1714;49.756;8.610;2023-02-11T08:43:52;6.10;23.00
3402;DHT22;1714;49.756;8.610;2023-02-11T08:54:31;6.10;20.60
3402;DHT22;1714;49.756;8.610;2023-02-11T09:05:06;5.20;25.90
3402;DHT22;1714;49.756;8.610;2023-02-11T09:15:45;6.30;23.00
3402;DHT22;1714;49.756;8.610;2023-02-11T09:26:24;7.40;19.70
3402;DHT22;1714;49.756;8.610;2023-02-11T09:37:00;10.00;12.90
3402;DHT22;1714;49.756;8.610;2023-02-11T09:47:46;8.50;15.30
3402;DHT22;1714;49.756;8.610;2023-02-11T09:58:29;9.10;14.90
3402;DHT22;1714;49.756;8.610;2023-02-11T10:09:28;9.10;14.40
3402;DHT22;1714;49.756;8.610;2023-02-11T10:31:18;9.00;16.60
3402;DHT22;1714;49.756;8.610;2023-02-11T10:41:59;9.90;14.20
3402;DHT22;1714;49.756;8.610;2023-02-11T10:52:36;10.20;14.60
3402;DHT22;1714;49.756;8.610;2023-02-11T11:03:20;9.80;16.10
3402;DHT22;1714;49.756;8.610;2023-02-11T11:13:58;10.50;13.90
3402;DHT22;1714;49.756;8.610;2023-02-11T11:24:44;8.10;19.10
3402;DHT22;1714;49.756;8.610;2023-02-11T11:35:27;8.70;18.80
3402;DHT22;1714;49.756;8.610;2023-02-11T11:46:04;7.60;22.30
3402;DHT22;1714;49.756;8.610;2023-02-11T11:56:52;7.40;24.40
3402;DHT22;1714;49.756;8.610;2023-02-11T12:19:10;7.40;25.70
3402;DHT22;1714;49.756;8.610;2023-02-11T12:52:54;7.80;26.60
3402;DHT22;1714;49.756;8.610;2023-02-11T13:03:56;8.10;27.40
3402;DHT22;1714;49.756;8.610;2023-02-11T13:14:37;7.80;28.10
3402;DHT22;1714;49.756;8.610;2023-02-11T13:36:22;7.50;29.90
3402;DHT22;1714;49.756;8.610;2023-02-11T13:47:00;7.40;30.80
3402;DHT22;1714;49.756;8.610;2023-02-11T13:57:38;7.30;31.40
3402;DHT22;1714;49.756;8.610;2023-02-11T14:08:22;7.20;32.30
3402;DHT22;1714;49.756;8.610;2023-02-11T14:40:50;7.00;34.80
3402;DHT22;1714;49.756;8.610;2023-02-11T14:51:39;7.00;39.00
3402;DHT22;1714;49.756;8.610;2023-02-11T15:02:20;7.00;43.30
3402;DHT22;1714;49.756;8.610;2023-02-11T15:12:57;6.90;44.40
3402;DHT22;1714;49.756;8.610;2023-02-11T15:23:33;6.90;43.50
3402;DHT22;1714;49.756;8.610;2023-02-11T15:34:10;6.80;44.50
3402;DHT22;1714;49.756;8.610;2023-02-11T15:44:48;6.80;45.30
3402;DHT22;1714;49.756;8.610;2023-02-11T15:55:31;6.90;45.30
3402;DHT22;1714;49.756;8.610;2023-02-11T16:06:40;6.70;46.10
3402;DHT22;1714;49.756;8.610;2023-02-11T16:17:29;6.70;47.40
3402;DHT22;1714;49.756;8.610;2023-02-11T16:28:05;6.70;48.20
3402;DHT22;1714;49.756;8.610;2023-02-11T16:38:41;6.60;50.20
3402;DHT22;1714;49.756;8.610;2023-02-11T16:49:21;6.50;52.40
3402;DHT22;1714;49.756;8.610;2023-02-11T17:00:05;6.40;54.00
3402;DHT22;1714;49.756;8.610;2023-02-11T17:10:41;6.50;54.30
3402;DHT22;1714;49.756;8.610;2023-02-11T17:21:17;6.40;55.00
3402;DHT22;1714;49.756;8.610;2023-02-11T17:31:53;6.40;55.20
3402;DHT22;1714;49.756;8.610;2023-02-11T17:42:29;6.50;55.10
3402;DHT22;1714;49.756;8.610;2023-02-11T17:53:05;6.40;55.90
3402;DHT22;1714;49.756;8.610;2023-02-11T18:03:41;6.40;55.10
3402;DHT22;1714;49.756;8.610;2023-02-11T18:14:17;6.50;53.80
3402;DHT22;1714;49.756;8.610;2023-02-11T18:24:54;6.50;53.60
3402;DHT22;1714;49.756;8.610;2023-02-11T18:35:29;6.50;53.80
3402;DHT22;1714;49.756;8.610;2023-02-11T18:46:08;6.60;54.10
3402;DHT22;1714;49.756;8.610;2023-02-11T18:56:44;6.60;54.20
3402;DHT22;1714;49.756;8.610;2023-02-11T19:07:20;6.60;53.60
3402;DHT22;1714;49.756;8.610;2023-02-11T19:17:55;6.60;53.80
3402;DHT22;1714;49.756;8.610;2023-02-11T19:28:32;6.60;54.30
3402;DHT22;1714;49.756;8.610;2023-02-11T19:39:08;6.50;54.40
3402;DHT22;1714;49.756;8.610;2023-02-11T19:49:44;6.60;53.70
3402;DHT22;1714;49.756;8.610;2023-02-11T20:00:20;6.60;53.90
3402;DHT22;1714;49.756;8.610;2023-02-11T20:10:56;6.60;54.20
3402;DHT22;1714;49.756;8.610;2023-02-11T20:21:32;6.70;53.90
3402;DHT22;1714;49.756;8.610;2023-02-11T20:32:08;6.60;54.20
3402;DHT22;1714;49.756;8.610;2023-02-11T20:42:45;6.60;55.10
3402;DHT22;1714;49.756;8.610;2023-02-11T20:53:20;6.40;57.80
3402;DHT22;1714;49.756;8.610;2023-02-11T21:04:01;6.30;59.40
3402;DHT22;1714;49.756;8.610;2023-02-11T21:14:37;6.30;60.40
3402;DHT22;1714;49.756;8.610;2023-02-11T21:25:13;6.20;62.60
3402;DHT22;1714;49.756;8.610;2023-02-11T21:35:49;6.00;65.90
3402;DHT22;1714;49.756;8.610;2023-02-11T21:46:25;5.80;68.80
3402;DHT22;1714;49.756;8.610;2023-02-11T21:57:01;5.90;67.10
3402;DHT22;1714;49.756;8.610;2023-02-11T22:07:37;5.80;69.90
3402;DHT22;1714;49.756;8.610;2023-02-11T22:18:13;5.80;70.10
3402;DHT22;1714;49.756;8.610;2023-02-11T22:28:49;5.80;70.90
